»·PEaware :: CAX550 KSBP-KIFP

CAX550 :: KSBP-KIFP

FLIGHT INFORMATION

Flight Status: Arrived
Operator:
California Airlines (website)
More flights by this operator :: More flights under this callsign
Pilot: Rodolfo A. (68)
Aircraft: GATES LEARJET LEARJET 60
(LJ60)
More flights by this aircraft type
Origin: KSBP San Luis Co Regl
United States
Destination: KIFP Laughlin/Bullhead Intl
United States
More flights between these airports :: More routes between these airports
Route: WYNNR2 FLW PMD HEC EED
File this flight plan on PilotEdge
Remarks: CALLSIGN CAL AIR 550 -- RUNNING XPLANE10
Altitude:
(Current/Filed)
33,000ft
Speed:
(Current/Filed)
450kts
Departed: 18-Dec-11 08:13 PM
Arrived: 18-Dec-11 09:23 PM
Distance/Time
Traveled:
298nm/1:10
Distance/Time
To Go:
Arrived

Flight Plot

Page will automatically refresh every two minutes.


Map Options




Map Legend


Flown Route
Filed Route
Departure Airport
Arrival Airport
Navaid (VOR, NDB)
Fix

Horizontal Profiles

Position Reports

Time Latitude Longitude Heading Altitude Ground
Speed
18-Dec-11 19:59 35.239328 -120.638297 179 216ft 0kts
18-Dec-11 20:00 35.239328 -120.638297 179 216ft 0kts
18-Dec-11 20:01 35.239327 -120.638297 179 216ft 0kts
18-Dec-11 20:02 35.239327 -120.638297 179 216ft 0kts
18-Dec-11 20:03 35.239327 -120.638297 179 216ft 0kts
18-Dec-11 20:04 35.239326 -120.638297 179 216ft 0kts
18-Dec-11 20:05 35.239326 -120.638297 179 216ft 0kts
18-Dec-11 20:06 35.238931 -120.638289 179 216ft 10kts
18-Dec-11 20:07 35.237696 -120.639503 304 216ft 9kts
18-Dec-11 20:08 35.239409 -120.642524 308 216ft 12kts
18-Dec-11 20:10 35.242680 -120.648639 245 216ft 0kts
18-Dec-11 20:11 35.242679 -120.648639 245 216ft 0kts
18-Dec-11 20:12 35.238665 -120.643148 125 216ft 120kts
18-Dec-11 20:13 35.199312 -120.597583 130 2761ft 247kts
18-Dec-11 20:14 35.162752 -120.523322 117 5796ft 264kts
18-Dec-11 20:15 35.134843 -120.441906 95 8752ft 273kts
18-Dec-11 20:16 35.127235 -120.341854 95 11829ft 339kts
18-Dec-11 20:17 35.118540 -120.223409 94 14840ft 359kts
18-Dec-11 20:18 35.109416 -120.100625 94 17835ft 372kts
18-Dec-11 20:19 35.099968 -119.972897 94 20836ft 386kts
18-Dec-11 20:20 35.082595 -119.821227 106 24136ft 404kts
18-Dec-11 20:21 35.055391 -119.710549 106 25698ft 417kts
18-Dec-11 20:22 35.021320 -119.573895 107 27203ft 426kts
18-Dec-11 20:23 34.986227 -119.434489 107 28707ft 434kts
18-Dec-11 20:24 34.950403 -119.293220 107 30078ft 443kts
18-Dec-11 20:25 34.913835 -119.149929 107 31076ft 448kts
18-Dec-11 20:26 34.876705 -119.005291 107 32071ft 452kts
18-Dec-11 20:27 34.840555 -118.864012 106 32961ft 453kts
18-Dec-11 20:28 34.809580 -118.738806 107 32999ft 454kts
18-Dec-11 20:29 34.772244 -118.592417 107 33000ft 453kts
18-Dec-11 20:30 34.734480 -118.447035 107 33000ft 453kts
18-Dec-11 20:31 34.696471 -118.302294 107 33000ft 453kts
18-Dec-11 20:32 34.657953 -118.156750 107 33000ft 453kts
18-Dec-11 20:33 34.638441 -118.008842 83 33006ft 452kts
18-Dec-11 20:34 34.653617 -117.859420 82 33000ft 453kts
18-Dec-11 20:35 34.670717 -117.708618 82 33000ft 453kts
18-Dec-11 20:36 34.687057 -117.557560 82 33000ft 453kts
18-Dec-11 20:37 34.703007 -117.405764 82 33000ft 453kts
18-Dec-11 20:38 34.718603 -117.254361 82 33000ft 453kts
18-Dec-11 20:39 34.734037 -117.102131 82 33000ft 453kts
18-Dec-11 20:40 34.749188 -116.950565 82 33000ft 453kts
18-Dec-11 20:41 34.765134 -116.800284 82 33000ft 453kts
18-Dec-11 20:42 34.781134 -116.648017 83 33000ft 453kts
18-Dec-11 20:43 34.796232 -116.496103 83 33000ft 453kts
18-Dec-11 20:44 34.797844 -116.342887 91 33000ft 453kts
18-Dec-11 20:45 34.795202 -116.189494 90 32131ft 457kts
18-Dec-11 20:46 34.792929 -116.036568 90 30123ft 447kts
18-Dec-11 20:49 34.789156 -115.626398 90 24484ft 414kts
18-Dec-11 20:50 34.787292 -115.488899 91 22482ft 402kts
18-Dec-11 20:51 34.785208 -115.359985 91 20549ft 390kts
18-Dec-11 20:52 34.782891 -115.230727 91 18553ft 378kts
18-Dec-11 20:53 34.780459 -115.104895 91 16550ft 367kts
18-Dec-11 20:54 34.777959 -114.982968 91 14551ft 357kts
18-Dec-11 20:55 34.775757 -114.865883 90 12573ft 346kts
18-Dec-11 20:56 34.774351 -114.750900 91 10575ft 336kts
18-Dec-11 20:57 34.772123 -114.650531 92 9281ft 278kts
18-Dec-11 20:58 34.769107 -114.557470 92 8087ft 274kts
18-Dec-11 20:59 34.765769 -114.477462 93 6816ft 219kts
18-Dec-11 21:01 34.664155 -114.436784 228 6017ft 217kts
18-Dec-11 21:02 34.692643 -114.478409 1 6011ft 219kts
18-Dec-11 21:03 34.753237 -114.475010 2 6000ft 218kts
18-Dec-11 21:04 34.787342 -114.436217 124 6022ft 218kts
18-Dec-11 21:05 34.730824 -114.414168 168 6000ft 218kts
18-Dec-11 21:06 34.671510 -114.403085 202 5998ft 217kts
18-Dec-11 21:07 34.682724 -114.453082 346 6018ft 219kts
18-Dec-11 21:08 34.740633 -114.469154 348 6000ft 218kts
18-Dec-11 21:09 34.792208 -114.455891 81 6021ft 218kts
18-Dec-11 21:10 34.747454 -114.419446 167 6001ft 218kts
18-Dec-11 21:11 34.690166 -114.418021 232 6017ft 217kts
18-Dec-11 21:12 34.720257 -114.462798 346 6006ft 218kts
18-Dec-11 21:13 34.779537 -114.477715 349 5872ft 219kts
18-Dec-11 21:14 34.838807 -114.490878 349 5033ft 214kts
18-Dec-11 21:15 34.897300 -114.503863 349 5000ft 215kts
18-Dec-11 21:16 34.954573 -114.516793 349 4668ft 181kts
18-Dec-11 21:17 34.994812 -114.525722 349 3818ft 138kts
18-Dec-11 21:18 35.032476 -114.534077 349 3110ft 136kts
18-Dec-11 21:19 35.070388 -114.542483 349 2352ft 136kts
18-Dec-11 21:20 35.106722 -114.554684 343 1627ft 136kts
18-Dec-11 21:21 35.143735 -114.558525 356 775ft 133kts
18-Dec-11 21:22 35.161850 -114.559452 33 705ft 12kts
18-Dec-11 21:23 35.162886 -114.558310 73 705ft 0kts
18-Dec-11 21:24 35.162659 -114.557443 176 705ft 0kts

Navigation Log

Ident Type
Flight plan parsing failed, navigation log unavailable